sensor_id;sensor_type;location;lat;lon;timestamp;temperature;humidity
69335;SHT31;56477;52.742;15.242;2022-08-19T00:02:13;21.29;86.44
69335;SHT31;56477;52.742;15.242;2022-08-19T00:04:39;21.26;86.54
69335;SHT31;56477;52.742;15.242;2022-08-19T00:07:06;21.20;86.80
69335;SHT31;56477;52.742;15.242;2022-08-19T00:09:31;21.26;86.68
69335;SHT31;56477;52.742;15.242;2022-08-19T00:11:58;21.26;86.51
69335;SHT31;56477;52.742;15.242;2022-08-19T00:14:25;21.34;86.69
69335;SHT31;56477;52.742;15.242;2022-08-19T00:16:52;21.31;86.25
69335;SHT31;56477;52.742;15.242;2022-08-19T00:19:20;21.33;86.83
69335;SHT31;56477;52.742;15.242;2022-08-19T00:21:46;21.38;86.40
69335;SHT31;56477;52.742;15.242;2022-08-19T00:24:13;21.38;86.59
69335;SHT31;56477;52.742;15.242;2022-08-19T00:26:42;21.47;86.54
69335;SHT31;56477;52.742;15.242;2022-08-19T00:29:11;21.48;86.43
69335;SHT31;56477;52.742;15.242;2022-08-19T00:31:37;21.53;86.46
69335;SHT31;56477;52.742;15.242;2022-08-19T00:34:03;21.51;86.14
69335;SHT31;56477;52.742;15.242;2022-08-19T00:36:29;21.53;86.27
69335;SHT31;56477;52.742;15.242;2022-08-19T00:38:55;21.55;86.35
69335;SHT31;56477;52.742;15.242;2022-08-19T00:41:23;21.54;86.53
69335;SHT31;56477;52.742;15.242;2022-08-19T00:46:27;21.53;86.26
69335;SHT31;56477;52.742;15.242;2022-08-19T00:48:54;21.57;86.14
69335;SHT31;56477;52.742;15.242;2022-08-19T00:51:20;21.55;86.12
69335;SHT31;56477;52.742;15.242;2022-08-19T00:53:47;21.55;86.49
69335;SHT31;56477;52.742;15.242;2022-08-19T00:56:13;21.57;86.26
69335;SHT31;56477;52.742;15.242;2022-08-19T00:58:39;21.64;85.94
69335;SHT31;56477;52.742;15.242;2022-08-19T01:01:06;21.67;85.79
69335;SHT31;56477;52.742;15.242;2022-08-19T01:03:33;21.71;86.28
69335;SHT31;56477;52.742;15.242;2022-08-19T01:05:59;21.74;85.71
69335;SHT31;56477;52.742;15.242;2022-08-19T01:08:26;21.82;85.06
69335;SHT31;56477;52.742;15.242;2022-08-19T01:10:57;21.85;84.73
69335;SHT31;56477;52.742;15.242;2022-08-19T01:13:26;21.92;85.02
69335;SHT31;56477;52.742;15.242;2022-08-19T01:16:03;21.95;84.35
69335;SHT31;56477;52.742;15.242;2022-08-19T01:18:32;21.99;84.64
69335;SHT31;56477;52.742;15.242;2022-08-19T01:21:03;22.04;84.47
69335;SHT31;56477;52.742;15.242;2022-08-19T01:23:31;22.02;83.91
69335;SHT31;56477;52.742;15.242;2022-08-19T01:26:15;22.09;83.63
69335;SHT31;56477;52.742;15.242;2022-08-19T01:28:43;22.17;82.55
69335;SHT31;56477;52.742;15.242;2022-08-19T01:31:15;22.25;83.02
69335;SHT31;56477;52.742;15.242;2022-08-19T01:33:42;22.26;83.16
69335;SHT31;56477;52.742;15.242;2022-08-19T01:36:11;22.23;82.78
69335;SHT31;56477;52.742;15.242;2022-08-19T01:38:40;22.30;83.66
69335;SHT31;56477;52.742;15.242;2022-08-19T01:41:11;22.32;83.05
69335;SHT31;56477;52.742;15.242;2022-08-19T01:43:37;22.36;82.78
69335;SHT31;56477;52.742;15.242;2022-08-19T01:46:03;22.36;83.11
69335;SHT31;56477;52.742;15.242;2022-08-19T01:48:38;22.36;82.26
69335;SHT31;56477;52.742;15.242;2022-08-19T01:51:05;22.40;82.62
69335;SHT31;56477;52.742;15.242;2022-08-19T01:53:32;22.44;82.57
69335;SHT31;56477;52.742;15.242;2022-08-19T01:55:58;22.47;82.33
69335;SHT31;56477;52.742;15.242;2022-08-19T01:58:29;22.44;82.03
69335;SHT31;56477;52.742;15.242;2022-08-19T02:00:57;22.52;82.37
69335;SHT31;56477;52.742;15.242;2022-08-19T02:03:23;22.53;82.71
69335;SHT31;56477;52.742;15.242;2022-08-19T02:05:55;22.54;82.04
69335;SHT31;56477;52.742;15.242;2022-08-19T02:08:22;22.57;81.74
69335;SHT31;56477;52.742;15.242;2022-08-19T02:10:48;22.60;81.42
69335;SHT31;56477;52.742;15.242;2022-08-19T02:13:15;22.63;81.13
69335;SHT31;56477;52.742;15.242;2022-08-19T02:15:41;22.64;81.39
69335;SHT31;56477;52.742;15.242;2022-08-19T02:18:07;22.61;80.84
69335;SHT31;56477;52.742;15.242;2022-08-19T02:20:34;22.64;80.93
69335;SHT31;56477;52.742;15.242;2022-08-19T02:23:00;22.61;81.10
69335;SHT31;56477;52.742;15.242;2022-08-19T02:25:27;22.65;81.69
69335;SHT31;56477;52.742;15.242;2022-08-19T02:27:52;22.59;81.00
69335;SHT31;56477;52.742;15.242;2022-08-19T02:30:19;22.59;81.66
69335;SHT31;56477;52.742;15.242;2022-08-19T02:32:45;22.54;81.85
69335;SHT31;56477;52.742;15.242;2022-08-19T02:35:14;22.49;81.45
69335;SHT31;56477;52.742;15.242;2022-08-19T02:37:41;22.49;81.20
69335;SHT31;56477;52.742;15.242;2022-08-19T02:40:27;22.44;81.77
69335;SHT31;56477;52.742;15.242;2022-08-19T02:42:53;22.43;81.61
69335;SHT31;56477;52.742;15.242;2022-08-19T02:45:19;22.43;83.30
69335;SHT31;56477;52.742;15.242;2022-08-19T02:47:45;22.39;82.65
69335;SHT31;56477;52.742;15.242;2022-08-19T02:50:12;22.37;82.47
69335;SHT31;56477;52.742;15.242;2022-08-19T02:52:38;22.36;82.36
69335;SHT31;56477;52.742;15.242;2022-08-19T02:55:04;22.32;82.41
69335;SHT31;56477;52.742;15.242;2022-08-19T02:57:31;22.29;82.42
69335;SHT31;56477;52.742;15.242;2022-08-19T02:59:58;22.29;82.47
69335;SHT31;56477;52.742;15.242;2022-08-19T03:02:24;22.25;82.19
69335;SHT31;56477;52.742;15.242;2022-08-19T03:04:50;22.23;81.93
69335;SHT31;56477;52.742;15.242;2022-08-19T03:07:17;22.26;82.41
69335;SHT31;56477;52.742;15.242;2022-08-19T03:09:44;22.26;83.20
69335;SHT31;56477;52.742;15.242;2022-08-19T03:12:10;22.26;82.38
69335;SHT31;56477;52.742;15.242;2022-08-19T03:14:36;22.28;82.41
69335;SHT31;56477;52.742;15.242;2022-08-19T03:17:03;22.30;82.42
69335;SHT31;56477;52.742;15.242;2022-08-19T03:19:31;22.30;83.02
69335;SHT31;56477;52.742;15.242;2022-08-19T03:21:57;22.28;83.27
69335;SHT31;56477;52.742;15.242;2022-08-19T03:24:24;22.26;83.74
69335;SHT31;56477;52.742;15.242;2022-08-19T03:26:54;22.20;83.16
69335;SHT31;56477;52.742;15.242;2022-08-19T03:29:26;22.19;83.56
69335;SHT31;56477;52.742;15.242;2022-08-19T03:31:52;22.19;83.70
69335;SHT31;56477;52.742;15.242;2022-08-19T03:34:26;22.22;83.12
69335;SHT31;56477;52.742;15.242;2022-08-19T03:36:53;22.25;82.56
69335;SHT31;56477;52.742;15.242;2022-08-19T03:39:20;22.23;82.47
69335;SHT31;56477;52.742;15.242;2022-08-19T03:41:48;22.23;82.29
69335;SHT31;56477;52.742;15.242;2022-08-19T03:44:18;22.17;83.11
69335;SHT31;56477;52.742;15.242;2022-08-19T03:46:52;22.22;82.67
69335;SHT31;56477;52.742;15.242;2022-08-19T03:49:19;22.17;82.63
69335;SHT31;56477;52.742;15.242;2022-08-19T03:51:46;22.17;83.03
69335;SHT31;56477;52.742;15.242;2022-08-19T03:54:15;22.19;83.07
69335;SHT31;56477;52.742;15.242;2022-08-19T03:56:43;22.15;82.42
69335;SHT31;56477;52.742;15.242;2022-08-19T03:59:11;22.08;83.08
69335;SHT31;56477;52.742;15.242;2022-08-19T04:01:39;22.13;83.10
69335;SHT31;56477;52.742;15.242;2022-08-19T04:04:05;22.06;83.68
69335;SHT31;56477;52.742;15.242;2022-08-19T04:06:33;22.09;83.18
69335;SHT31;56477;52.742;15.242;2022-08-19T04:09:02;22.10;82.85
69335;SHT31;56477;52.742;15.242;2022-08-19T04:11:33;22.10;82.92
69335;SHT31;56477;52.742;15.242;2022-08-19T04:13:59;22.12;83.54
69335;SHT31;56477;52.742;15.242;2022-08-19T04:16:29;22.09;83.34
69335;SHT31;56477;52.742;15.242;2022-08-19T04:18:56;22.12;83.33
69335;SHT31;56477;52.742;15.242;2022-08-19T04:21:26;22.10;83.22
69335;SHT31;56477;52.742;15.242;2022-08-19T04:23:54;22.12;83.29
69335;SHT31;56477;52.742;15.242;2022-08-19T04:26:30;22.13;83.18
69335;SHT31;56477;52.742;15.242;2022-08-19T04:29:01;22.12;83.19
69335;SHT31;56477;52.742;15.242;2022-08-19T04:31:30;22.12;83.23
69335;SHT31;56477;52.742;15.242;2022-08-19T04:33:58;22.04;83.49
69335;SHT31;56477;52.742;15.242;2022-08-19T04:36:28;22.05;83.79
69335;SHT31;56477;52.742;15.242;2022-08-19T04:38:56;22.05;83.49
69335;SHT31;56477;52.742;15.242;2022-08-19T04:41:23;22.04;83.78
69335;SHT31;56477;52.742;15.242;2022-08-19T04:44:08;22.05;83.80
69335;SHT31;56477;52.742;15.242;2022-08-19T04:46:34;22.01;83.76
69335;SHT31;56477;52.742;15.242;2022-08-19T04:49:02;22.05;84.03
69335;SHT31;56477;52.742;15.242;2022-08-19T04:51:31;22.06;83.83
69335;SHT31;56477;52.742;15.242;2022-08-19T04:53:58;22.10;84.01
69335;SHT31;56477;52.742;15.242;2022-08-19T04:56:26;22.15;83.76
69335;SHT31;56477;52.742;15.242;2022-08-19T04:58:54;22.10;83.58
69335;SHT31;56477;52.742;15.242;2022-08-19T05:01:26;22.09;83.88
69335;SHT31;56477;52.742;15.242;2022-08-19T05:03:55;22.10;83.95
69335;SHT31;56477;52.742;15.242;2022-08-19T05:06:22;22.09;84.15
69335;SHT31;56477;52.742;15.242;2022-08-19T05:08:49;22.08;83.89
69335;SHT31;56477;52.742;15.242;2022-08-19T05:11:19;22.08;83.83
69335;SHT31;56477;52.742;15.242;2022-08-19T05:13:46;22.06;84.06
69335;SHT31;56477;52.742;15.242;2022-08-19T05:16:13;22.05;84.30
69335;SHT31;56477;52.742;15.242;2022-08-19T05:18:39;22.01;84.43
69335;SHT31;56477;52.742;15.242;2022-08-19T05:21:25;22.05;83.98
69335;SHT31;56477;52.742;15.242;2022-08-19T05:24:10;22.02;84.17
69335;SHT31;56477;52.742;15.242;2022-08-19T05:26:41;22.05;84.17
69335;SHT31;56477;52.742;15.242;2022-08-19T05:29:09;22.13;84.17
69335;SHT31;56477;52.742;15.242;2022-08-19T05:31:36;22.09;83.92
69335;SHT31;56477;52.742;15.242;2022-08-19T05:34:04;22.19;83.80
69335;SHT31;56477;52.742;15.242;2022-08-19T05:36:38;22.23;83.83
69335;SHT31;56477;52.742;15.242;2022-08-19T05:39:12;22.30;83.89
69335;SHT31;56477;52.742;15.242;2022-08-19T05:41:46;22.42;83.91
69335;SHT31;56477;52.742;15.242;2022-08-19T05:44:14;22.47;82.99
69335;SHT31;56477;52.742;15.242;2022-08-19T05:46:43;22.56;83.73
69335;SHT31;56477;52.742;15.242;2022-08-19T05:49:09;22.67;82.95
69335;SHT31;56477;52.742;15.242;2022-08-19T05:51:36;22.80;83.21
69335;SHT31;56477;52.742;15.242;2022-08-19T05:54:05;22.88;82.96
69335;SHT31;56477;52.742;15.242;2022-08-19T05:56:33;23.01;82.35
69335;SHT31;56477;52.742;15.242;2022-08-19T05:59:02;23.18;82.26
69335;SHT31;56477;52.742;15.242;2022-08-19T06:01:29;23.29;81.35
69335;SHT31;56477;52.742;15.242;2022-08-19T06:03:55;23.45;81.07
69335;SHT31;56477;52.742;15.242;2022-08-19T06:06:21;23.51;81.32
69335;SHT31;56477;52.742;15.242;2022-08-19T06:08:47;23.72;79.87
69335;SHT31;56477;52.742;15.242;2022-08-19T06:11:24;23.84;79.44
69335;SHT31;56477;52.742;15.242;2022-08-19T06:13:53;23.94;78.99
69335;SHT31;56477;52.742;15.242;2022-08-19T06:16:21;24.00;78.95
69335;SHT31;56477;52.742;15.242;2022-08-19T06:18:56;24.00;78.35
69335;SHT31;56477;52.742;15.242;2022-08-19T06:21:25;24.07;78.66
69335;SHT31;56477;52.742;15.242;2022-08-19T06:23:52;23.96;78.75
69335;SHT31;56477;52.742;15.242;2022-08-19T06:26:19;24.11;78.58
69335;SHT31;56477;52.742;15.242;2022-08-19T06:28:47;24.28;78.79
69335;SHT31;56477;52.742;15.242;2022-08-19T06:31:19;24.31;78.24
69335;SHT31;56477;52.742;15.242;2022-08-19T06:33:47;24.30;77.74
69335;SHT31;56477;52.742;15.242;2022-08-19T06:36:21;24.37;77.47
69335;SHT31;56477;52.742;15.242;2022-08-19T06:38:49;24.45;77.74
69335;SHT31;56477;52.742;15.242;2022-08-19T06:41:15;24.55;77.16
69335;SHT31;56477;52.742;15.242;2022-08-19T06:43:41;24.68;76.54
69335;SHT31;56477;52.742;15.242;2022-08-19T06:46:13;24.80;77.18
69335;SHT31;56477;52.742;15.242;2022-08-19T06:48:40;24.68;76.75
69335;SHT31;56477;52.742;15.242;2022-08-19T06:51:06;24.59;77.51
69335;SHT31;56477;52.742;15.242;2022-08-19T06:53:32;24.45;76.88
69335;SHT31;56477;52.742;15.242;2022-08-19T06:55:58;25.12;76.00
69335;SHT31;56477;52.742;15.242;2022-08-19T06:58:29;25.16;74.98
69335;SHT31;56477;52.742;15.242;2022-08-19T07:00:59;24.97;75.32
69335;SHT31;56477;52.742;15.242;2022-08-19T07:03:29;24.90;76.11
69335;SHT31;56477;52.742;15.242;2022-08-19T07:05:57;24.92;76.09
69335;SHT31;56477;52.742;15.242;2022-08-19T07:08:22;24.93;75.78
69335;SHT31;56477;52.742;15.242;2022-08-19T07:10:52;25.03;76.47
69335;SHT31;56477;52.742;15.242;2022-08-19T07:13:19;25.24;74.46
69335;SHT31;56477;52.742;15.242;2022-08-19T07:15:45;25.23;74.14
69335;SHT31;56477;52.742;15.242;2022-08-19T07:18:12;25.85;74.01
69335;SHT31;56477;52.742;15.242;2022-08-19T07:20:39;26.22;72.52
69335;SHT31;56477;52.742;15.242;2022-08-19T07:23:05;26.25;71.14
69335;SHT31;56477;52.742;15.242;2022-08-19T07:25:31;26.73;70.04
69335;SHT31;56477;52.742;15.242;2022-08-19T07:27:57;27.15;69.54
69335;SHT31;56477;52.742;15.242;2022-08-19T07:30:23;27.08;69.17
69335;SHT31;56477;52.742;15.242;2022-08-19T07:32:49;27.22;68.45
69335;SHT31;56477;52.742;15.242;2022-08-19T07:35:17;27.11;68.76
69335;SHT31;56477;52.742;15.242;2022-08-19T07:37:45;27.16;68.71
69335;SHT31;56477;52.742;15.242;2022-08-19T07:40:11;27.11;68.87
69335;SHT31;56477;52.742;15.242;2022-08-19T07:42:37;26.98;68.77
69335;SHT31;56477;52.742;15.242;2022-08-19T07:45:05;27.76;67.52
69335;SHT31;56477;52.742;15.242;2022-08-19T07:47:31;27.89;66.17
69335;SHT31;56477;52.742;15.242;2022-08-19T07:49:57;27.85;66.97
69335;SHT31;56477;52.742;15.242;2022-08-19T07:52:22;27.90;66.89
69335;SHT31;56477;52.742;15.242;2022-08-19T07:54:49;28.27;65.92
69335;SHT31;56477;52.742;15.242;2022-08-19T07:57:15;28.40;65.02
69335;SHT31;56477;52.742;15.242;2022-08-19T07:59:41;28.86;63.97
69335;SHT31;56477;52.742;15.242;2022-08-19T08:02:08;28.75;64.14
69335;SHT31;56477;52.742;15.242;2022-08-19T08:04:34;28.55;63.45
69335;SHT31;56477;52.742;15.242;2022-08-19T08:07:19;28.40;63.02
69335;SHT31;56477;52.742;15.242;2022-08-19T08:10:06;28.03;63.12
69335;SHT31;56477;52.742;15.242;2022-08-19T08:12:36;27.73;64.03
69335;SHT31;56477;52.742;15.242;2022-08-19T08:15:11;27.69;64.83
69335;SHT31;56477;52.742;15.242;2022-08-19T08:17:37;28.07;64.00
69335;SHT31;56477;52.742;15.242;2022-08-19T08:20:06;28.14;62.53
69335;SHT31;56477;52.742;15.242;2022-08-19T08:22:32;28.37;62.18
69335;SHT31;56477;52.742;15.242;2022-08-19T08:25:23;28.29;63.04
69335;SHT31;56477;52.742;15.242;2022-08-19T08:27:49;28.21;61.88
69335;SHT31;56477;52.742;15.242;2022-08-19T08:30:19;28.65;61.69
69335;SHT31;56477;52.742;15.242;2022-08-19T08:32:45;30.01;58.27
69335;SHT31;56477;52.742;15.242;2022-08-19T08:35:14;31.22;55.16
69335;SHT31;56477;52.742;15.242;2022-08-19T08:37:42;31.82;52.96
69335;SHT31;56477;52.742;15.242;2022-08-19T08:40:19;32.57;50.48
69335;SHT31;56477;52.742;15.242;2022-08-19T08:43:01;33.51;48.47
69335;SHT31;56477;52.742;15.242;2022-08-19T08:45:32;33.19;48.78
69335;SHT31;56477;52.742;15.242;2022-08-19T08:48:16;32.81;49.73
69335;SHT31;56477;52.742;15.242;2022-08-19T08:50:45;33.37;49.08
69335;SHT31;56477;52.742;15.242;2022-08-19T08:53:16;33.56;48.41
69335;SHT31;56477;52.742;15.242;2022-08-19T08:55:44;33.81;48.33
69335;SHT31;56477;52.742;15.242;2022-08-19T08:58:24;34.38;45.94
69335;SHT31;56477;52.742;15.242;2022-08-19T09:00:52;33.95;46.79
69335;SHT31;56477;52.742;15.242;2022-08-19T09:03:24;32.58;48.59
69335;SHT31;56477;52.742;15.242;2022-08-19T09:10:55;32.57;50.00
69335;SHT31;56477;52.742;15.242;2022-08-19T09:13:38;32.94;49.74
69335;SHT31;56477;52.742;15.242;2022-08-19T09:16:12;34.11;46.18
69335;SHT31;56477;52.742;15.242;2022-08-19T09:18:44;33.53;48.26
69335;SHT31;56477;52.742;15.242;2022-08-19T09:21:14;33.70;47.20
69335;SHT31;56477;52.742;15.242;2022-08-19T09:23:40;34.32;46.08
69335;SHT31;56477;52.742;15.242;2022-08-19T09:26:08;33.56;47.01
69335;SHT31;56477;52.742;15.242;2022-08-19T09:28:35;32.95;48.15
69335;SHT31;56477;52.742;15.242;2022-08-19T09:31:02;32.89;47.48
69335;SHT31;56477;52.742;15.242;2022-08-19T09:33:28;32.72;48.23
69335;SHT31;56477;52.742;15.242;2022-08-19T09:36:06;32.16;50.91
69335;SHT31;56477;52.742;15.242;2022-08-19T09:38:35;31.94;50.17
69335;SHT31;56477;52.742;15.242;2022-08-19T09:41:05;32.40;49.39
69335;SHT31;56477;52.742;15.242;2022-08-19T09:43:32;33.03;48.00
69335;SHT31;56477;52.742;15.242;2022-08-19T09:46:00;32.68;49.83
69335;SHT31;56477;52.742;15.242;2022-08-19T09:48:26;31.90;51.59
69335;SHT31;56477;52.742;15.242;2022-08-19T09:50:52;32.85;49.60
69335;SHT31;56477;52.742;15.242;2022-08-19T09:53:20;31.98;50.53
69335;SHT31;56477;52.742;15.242;2022-08-19T09:55:48;31.93;49.91
69335;SHT31;56477;52.742;15.242;2022-08-19T09:58:13;31.98;49.79
69335;SHT31;56477;52.742;15.242;2022-08-19T10:00:39;32.35;50.21
69335;SHT31;56477;52.742;15.242;2022-08-19T10:03:05;31.25;51.74
69335;SHT31;56477;52.742;15.242;2022-08-19T10:05:31;31.92;51.19
69335;SHT31;56477;52.742;15.242;2022-08-19T10:08:17;32.33;50.92
69335;SHT31;56477;52.742;15.242;2022-08-19T10:10:44;33.15;49.79
69335;SHT31;56477;52.742;15.242;2022-08-19T10:13:10;32.85;49.42
69335;SHT31;56477;52.742;15.242;2022-08-19T10:15:36;32.75;50.50
69335;SHT31;56477;52.742;15.242;2022-08-19T10:18:05;32.89;48.63
69335;SHT31;56477;52.742;15.242;2022-08-19T10:20:31;32.68;49.22
69335;SHT31;56477;52.742;15.242;2022-08-19T10:22:57;32.54;48.57
69335;SHT31;56477;52.742;15.242;2022-08-19T10:25:25;32.12;49.64
69335;SHT31;56477;52.742;15.242;2022-08-19T10:27:52;32.04;49.86
69335;SHT31;56477;52.742;15.242;2022-08-19T10:30:19;32.45;50.30
69335;SHT31;56477;52.742;15.242;2022-08-19T10:32:45;32.64;49.73
69335;SHT31;56477;52.742;15.242;2022-08-19T10:35:12;32.81;50.43
69335;SHT31;56477;52.742;15.242;2022-08-19T10:37:39;33.09;48.35
69335;SHT31;56477;52.742;15.242;2022-08-19T10:40:07;33.09;49.02
69335;SHT31;56477;52.742;15.242;2022-08-19T10:42:34;33.47;46.56
69335;SHT31;56477;52.742;15.242;2022-08-19T10:45:01;32.98;47.27
69335;SHT31;56477;52.742;15.242;2022-08-19T10:47:27;33.15;46.53
69335;SHT31;56477;52.742;15.242;2022-08-19T10:49:54;31.94;49.18
69335;SHT31;56477;52.742;15.242;2022-08-19T10:52:44;32.45;49.11
69335;SHT31;56477;52.742;15.242;2022-08-19T10:55:11;32.81;47.28
69335;SHT31;56477;52.742;15.242;2022-08-19T10:57:56;32.14;49.44
69335;SHT31;56477;52.742;15.242;2022-08-19T11:00:24;31.83;50.02
69335;SHT31;56477;52.742;15.242;2022-08-19T11:02:50;32.31;48.46
69335;SHT31;56477;52.742;15.242;2022-08-19T11:05:17;31.82;49.69
69335;SHT31;56477;52.742;15.242;2022-08-19T11:07:45;31.82;50.54
69335;SHT31;56477;52.742;15.242;2022-08-19T11:10:13;31.14;51.65
69335;SHT31;56477;52.742;15.242;2022-08-19T11:12:40;30.78;51.46
69335;SHT31;56477;52.742;15.242;2022-08-19T11:15:08;30.76;52.92
69335;SHT31;56477;52.742;15.242;2022-08-19T11:17:38;30.61;52.74
69335;SHT31;56477;52.742;15.242;2022-08-19T11:20:07;30.47;54.38
69335;SHT31;56477;52.742;15.242;2022-08-19T11:22:34;30.46;52.97
69335;SHT31;56477;52.742;15.242;2022-08-19T11:25:00;30.26;53.45
69335;SHT31;56477;52.742;15.242;2022-08-19T11:27:26;30.23;53.86
69335;SHT31;56477;52.742;15.242;2022-08-19T11:29:52;29.80;54.86
69335;SHT31;56477;52.742;15.242;2022-08-19T11:32:18;29.72;53.82
69335;SHT31;56477;52.742;15.242;2022-08-19T11:34:44;29.71;55.67
69335;SHT31;56477;52.742;15.242;2022-08-19T11:37:10;29.38;55.75
69335;SHT31;56477;52.742;15.242;2022-08-19T11:39:36;29.13;57.41
69335;SHT31;56477;52.742;15.242;2022-08-19T11:42:04;28.58;60.00
69335;SHT31;56477;52.742;15.242;2022-08-19T11:44:50;27.97;62.71
69335;SHT31;56477;52.742;15.242;2022-08-19T11:47:16;27.97;63.22
69335;SHT31;56477;52.742;15.242;2022-08-19T11:49:42;27.90;63.04
69335;SHT31;56477;52.742;15.242;2022-08-19T11:52:08;27.97;62.90
69335;SHT31;56477;52.742;15.242;2022-08-19T11:54:34;27.83;63.61
69335;SHT31;56477;52.742;15.242;2022-08-19T11:57:03;27.93;63.78
69335;SHT31;56477;52.742;15.242;2022-08-19T11:59:29;28.10;63.61
69335;SHT31;56477;52.742;15.242;2022-08-19T12:01:55;28.27;62.74
69335;SHT31;56477;52.742;15.242;2022-08-19T12:04:22;28.13;62.80
69335;SHT31;56477;52.742;15.242;2022-08-19T12:06:47;28.01;64.56
69335;SHT31;56477;52.742;15.242;2022-08-19T12:09:15;28.25;64.15
69335;SHT31;56477;52.742;15.242;2022-08-19T12:11:43;28.13;64.10
69335;SHT31;56477;52.742;15.242;2022-08-19T12:14:11;28.74;63.49
69335;SHT31;56477;52.742;15.242;2022-08-19T12:16:37;29.16;62.62
69335;SHT31;56477;52.742;15.242;2022-08-19T12:19:04;29.20;62.84
69335;SHT31;56477;52.742;15.242;2022-08-19T12:21:33;28.79;63.84
69335;SHT31;56477;52.742;15.242;2022-08-19T12:24:00;27.90;66.33
69335;SHT31;56477;52.742;15.242;2022-08-19T12:26:28;27.92;67.00
69335;SHT31;56477;52.742;15.242;2022-08-19T12:28:54;27.93;67.86
69335;SHT31;56477;52.742;15.242;2022-08-19T12:31:20;27.63;68.35
69335;SHT31;56477;52.742;15.242;2022-08-19T12:33:46;27.35;70.23
69335;SHT31;56477;52.742;15.242;2022-08-19T12:36:14;27.00;69.79
69335;SHT31;56477;52.742;15.242;2022-08-19T12:38:41;26.64;70.37
69335;SHT31;56477;52.742;15.242;2022-08-19T12:41:10;25.98;72.39
69335;SHT31;56477;52.742;15.242;2022-08-19T12:43:37;25.95;72.33
69335;SHT31;56477;52.742;15.242;2022-08-19T12:46:04;25.71;73.27
69335;SHT31;56477;52.742;15.242;2022-08-19T12:48:31;25.60;73.77
69335;SHT31;56477;52.742;15.242;2022-08-19T12:50:57;25.47;74.29
69335;SHT31;56477;52.742;15.242;2022-08-19T12:53:23;25.58;73.90
69335;SHT31;56477;52.742;15.242;2022-08-19T12:55:55;25.68;72.61
69335;SHT31;56477;52.742;15.242;2022-08-19T12:58:22;25.96;71.96
69335;SHT31;56477;52.742;15.242;2022-08-19T13:00:49;26.25;71.26
69335;SHT31;56477;52.742;15.242;2022-08-19T13:03:15;26.69;70.15
69335;SHT31;56477;52.742;15.242;2022-08-19T13:05:40;26.54;70.58
69335;SHT31;56477;52.742;15.242;2022-08-19T13:08:07;26.61;70.23
69335;SHT31;56477;52.742;15.242;2022-08-19T13:10:34;26.84;69.48
69335;SHT31;56477;52.742;15.242;2022-08-19T13:13:03;26.40;70.97
69335;SHT31;56477;52.742;15.242;2022-08-19T13:15:34;26.11;71.71
69335;SHT31;56477;52.742;15.242;2022-08-19T13:18:00;25.92;72.42
69335;SHT31;56477;52.742;15.242;2022-08-19T13:20:26;26.64;70.81
69335;SHT31;56477;52.742;15.242;2022-08-19T13:22:54;27.48;68.06
69335;SHT31;56477;52.742;15.242;2022-08-19T13:25:20;28.48;65.76
69335;SHT31;56477;52.742;15.242;2022-08-19T13:27:47;27.73;67.40
69335;SHT31;56477;52.742;15.242;2022-08-19T13:30:15;27.18;68.84
69335;SHT31;56477;52.742;15.242;2022-08-19T13:32:59;27.05;69.39
69335;SHT31;56477;52.742;15.242;2022-08-19T13:35:57;27.04;69.23
69335;SHT31;56477;52.742;15.242;2022-08-19T13:38:24;26.71;69.89
69335;SHT31;56477;52.742;15.242;2022-08-19T13:40:53;26.57;70.10
69335;SHT31;56477;52.742;15.242;2022-08-19T13:43:21;27.58;66.80
69335;SHT31;56477;52.742;15.242;2022-08-19T13:45:51;27.49;67.30
69335;SHT31;56477;52.742;15.242;2022-08-19T13:48:19;27.29;68.13
69335;SHT31;56477;52.742;15.242;2022-08-19T13:50:45;27.63;67.85
69335;SHT31;56477;52.742;15.242;2022-08-19T13:53:12;28.18;66.29
69335;SHT31;56477;52.742;15.242;2022-08-19T13:55:40;28.59;65.17
69335;SHT31;56477;52.742;15.242;2022-08-19T13:58:06;28.51;64.07
69335;SHT31;56477;52.742;15.242;2022-08-19T14:00:37;28.55;64.47
69335;SHT31;56477;52.742;15.242;2022-08-19T14:03:04;29.12;62.27
69335;SHT31;56477;52.742;15.242;2022-08-19T14:05:32;28.25;64.03
69335;SHT31;56477;52.742;15.242;2022-08-19T14:07:58;27.15;67.88
69335;SHT31;56477;52.742;15.242;2022-08-19T14:10:26;26.76;69.91
69335;SHT31;56477;52.742;15.242;2022-08-19T14:12:54;26.22;70.29
69335;SHT31;56477;52.742;15.242;2022-08-19T14:15:21;26.46;69.73
69335;SHT31;56477;52.742;15.242;2022-08-19T14:17:49;26.29;70.89
69335;SHT31;56477;52.742;15.242;2022-08-19T14:20:15;26.42;70.85
69335;SHT31;56477;52.742;15.242;2022-08-19T14:22:42;26.26;71.26
69335;SHT31;56477;52.742;15.242;2022-08-19T14:25:11;26.35;69.92
69335;SHT31;56477;52.742;15.242;2022-08-19T14:27:38;25.99;71.43
69335;SHT31;56477;52.742;15.242;2022-08-19T14:30:06;25.75;72.67
69335;SHT31;56477;52.742;15.242;2022-08-19T14:32:34;25.77;72.44
69335;SHT31;56477;52.742;15.242;2022-08-19T14:35:01;25.85;72.06
69335;SHT31;56477;52.742;15.242;2022-08-19T14:37:26;25.73;72.86
69335;SHT31;56477;52.742;15.242;2022-08-19T14:39:53;25.91;72.58
69335;SHT31;56477;52.742;15.242;2022-08-19T14:42:19;26.06;71.66
69335;SHT31;56477;52.742;15.242;2022-08-19T14:44:44;26.05;71.34
69335;SHT31;56477;52.742;15.242;2022-08-19T14:47:11;26.80;69.40
69335;SHT31;56477;52.742;15.242;2022-08-19T14:49:36;26.61;69.82
69335;SHT31;56477;52.742;15.242;2022-08-19T14:52:03;26.60;69.85
69335;SHT31;56477;52.742;15.242;2022-08-19T14:54:29;26.73;69.36
69335;SHT31;56477;52.742;15.242;2022-08-19T14:56:55;27.48;66.46
69335;SHT31;56477;52.742;15.242;2022-08-19T14:59:21;27.31;66.89
69335;SHT31;56477;52.742;15.242;2022-08-19T15:01:47;27.12;68.46
69335;SHT31;56477;52.742;15.242;2022-08-19T15:04:13;26.65;69.48
69335;SHT31;56477;52.742;15.242;2022-08-19T15:06:38;26.71;69.79
69335;SHT31;56477;52.742;15.242;2022-08-19T15:09:05;26.53;70.20
69335;SHT31;56477;52.742;15.242;2022-08-19T15:11:31;26.49;69.99
69335;SHT31;56477;52.742;15.242;2022-08-19T15:13:58;26.21;70.77
69335;SHT31;56477;52.742;15.242;2022-08-19T15:16:25;26.13;71.39
69335;SHT31;56477;52.742;15.242;2022-08-19T15:18:55;26.32;70.81
69335;SHT31;56477;52.742;15.242;2022-08-19T15:21:21;26.01;71.51
69335;SHT31;56477;52.742;15.242;2022-08-19T15:23:49;26.18;71.22
69335;SHT31;56477;52.742;15.242;2022-08-19T15:26:17;26.05;71.25
69335;SHT31;56477;52.742;15.242;2022-08-19T15:28:43;26.01;71.40
69335;SHT31;56477;52.742;15.242;2022-08-19T15:31:10;25.82;71.48